TV03 weather

Public forecast

Using degrees Celsius for public forecast. Weather courtesy of forecast.io.

Closest aviation weather report (METAR) to Aviosuperficie G. Carrer

Closest report is Venice Marco Polo Airport, 14.1 nm (26.2 km) SW. Retrieved 2020/08/15 13:20 UTC (17 minutes ago):

LIPZ 151320Z 15004KT 110V190 CAVOK 29/14 Q1012 NOSIG

Closest aviation forecast (TAF) to Aviosuperficie G. Carrer

Closest forecast is Venice Marco Polo Airport, 14.1 nm (26.2 km) SW. Retrieved 2020/08/15 12:21 UTC (1 hour ago):

TAF LIPZ 151100Z 1512/1618 15008KT 9999 FEW030 BECMG 1518/1520 03006KT BECMG 1609/1611 16012KT